Time;durP1;ratioP1;P1;durP2;ratioP2;P2;SDS_P1;SDS_P2;PMS_P1;PMS_P2;Temp;Humidity;BMP_temperature;BMP_pressure;BME280_temperature;BME280_humidity;BME280_pressure;Samples;Min_cycle;Max_cycle;Signal;HPM_P1;HPM_P2
2024/03/02 04:20:31;;;;;;;;;;;;;;;;;;;;;
2024/03/02 04:26:56;;;;;;;15.50;9.60;;;;;;;6.21;85.13;95046.62;106022;1289;22520;-78
2024/03/02 04:30:14;;;;;;;14.90;8.80;;;;;;;6.15;84.76;95041.60;106386;1284;22551;-79
2024/03/02 04:33:03;;;;;;;;;;;;;;;;;;;;;
2024/03/02 04:35:58;;;;;;;42.50;26.70;;;;;;;6.01;85.59;95047.67;106467;1282;22533;-77
2024/03/02 04:39:24;;;;;;;15.30;9.50;;;;;;;6.00;85.13;95037.92;106270;1282;22523;-75
2024/03/02 04:42:17;;;;;;;23.20;13.90;;;;;;;5.99;85.33;95038.98;106767;1275;22633;-81
2024/03/02 04:45:05;;;;;;;34.00;22.50;;;;;;;5.98;85.47;95048.05;106640;1275;22615;-78
2024/03/02 04:48:08;;;;;;;27.90;18.60;;;;;;;5.97;85.45;95045.10;106700;1275;24252;-78
2024/03/02 04:51:03;;;;;;;26.90;18.10;;;;;;;5.95;85.59;95040.92;106714;1275;23908;-80
2024/03/02 04:54:16;;;;;;;23.60;14.00;;;;;;;5.96;85.41;95036.91;106627;1275;22519;-81
2024/03/02 04:57:34;;;;;;;;;;;;;;;;;;;;;
2024/03/02 05:00:08;;;;;;;44.00;23.70;;;;;;;5.95;85.44;95047.23;106689;1275;22513;-81
2024/03/02 05:03:21;;;;;;;39.30;22.20;;;;;;;5.94;85.39;95048.27;106665;1275;22518;-78
2024/03/02 05:06:51;;;;;;;;;;;;;;;;;;;;;
2024/03/02 05:09:48;;;;;;;28.40;17.30;;;;;;;5.94;85.09;95056.29;106774;1275;22506;-81
2024/03/02 05:15:40;;;;;;;;;;;;;;;;;;;;;
2024/03/02 05:18:45;;;;;;;;;;;;;;;;;;;;;
2024/03/02 05:22:09;;;;;;;;;;;;;;;;;;;;;
2024/03/02 05:28:26;;;;;;;48.20;31.20;;;;;;;5.85;85.18;95051.99;106943;1275;24817;-80
2024/03/02 05:31:40;;;;;;;;;;;;;;;;;;;;;
2024/03/02 05:34:41;;;;;;;;;;;;;;;;;;;;;
2024/03/02 05:37:58;;;;;;;12.10;7.30;;;;;;;5.90;84.29;95060.86;106818;1275;24196;-76
2024/03/02 05:40:42;;;;;;;;;;;;;;;;;;;;;
2024/03/02 05:43:27;;;;;;;15.80;9.50;;;;;;;5.98;83.19;95065.35;106743;1275;24218;-75
2024/03/02 05:46:31;;;;;;;;;;;;;;;;;;;;;
2024/03/02 05:49:36;;;;;;;;;;;;;;;;;;;;;
2024/03/02 05:52:12;;;;;;;11.00;6.90;;;;;;;6.10;82.42;95066.44;106739;1275;22541;-81
2024/03/02 05:55:02;;;;;;;26.40;15.90;;;;;;;6.11;82.35;95064.34;106686;1275;24948;-75
2024/03/02 06:00:54;;;;;;;;;;;;;;;;;;;;;
2024/03/02 06:03:51;;;;;;;52.10;34.20;;;;;;;6.07;82.54;95071.73;106674;1275;23870;-79
2024/03/02 06:06:56;;;;;;;;;;;;;;;;;;;;;
2024/03/02 06:09:31;;;;;;;44.60;30.70;;;;;;;6.05;83.49;95074.01;106975;1275;22756;-78
2024/03/02 06:12:23;;;;;;;45.80;30.30;;;;;;;6.05;83.74;95074.17;106792;1275;25294;-78
2024/03/02 06:15:11;;;;;;;38.80;27.00;;;;;;;6.08;83.65;95069.44;106710;1275;24234;-81
2024/03/02 06:18:39;;;;;;;36.70;24.80;;;;;;;6.14;83.58;95071.12;106673;1275;22520;-79
2024/03/02 06:22:19;;;;;;;;;;;;;;;;;;;;;
2024/03/02 06:25:22;;;;;;;40.00;28.90;;;;;;;6.25;84.00;95073.64;106833;1275;22526;-81
2024/03/02 06:28:27;;;;;;;50.20;33.50;;;;;;;6.32;84.15;95071.64;107049;1275;23886;-79
2024/03/02 06:31:38;;;;;;;44.50;27.40;;;;;;;6.45;84.23;95077.61;106687;1275;22514;-76
2024/03/02 06:34:39;;;;;;;43.20;27.70;;;;;;;6.55;83.93;95078.20;106720;1275;22525;-77
2024/03/02 06:37:44;;;;;;;;;;;;;;;;;;;;;
2024/03/02 06:40:57;;;;;;;;;;;;;;;;;;;;;
2024/03/02 06:43:59;;;;;;;;;;;;;;;;;;;;;
2024/03/02 06:46:37;;;;;;;40.30;25.20;;;;;;;6.87;83.19;95078.17;106759;1274;25329;-79
2024/03/02 06:49:27;;;;;;;35.20;23.40;;;;;;;6.98;83.22;95083.63;106827;1274;24223;-78
2024/03/02 06:52:39;;;;;;;;;;;;;;;;;;;;;
2024/03/02 06:56:09;;;;;;;65.70;38.40;;;;;;;7.28;82.59;95077.98;106859;1275;25330;-78
2024/03/02 06:59:38;;;;;;;96.10;54.00;;;;;;;7.39;81.60;95081.85;106718;1274;22524;-76
2024/03/02 07:03:07;;;;;;;74.50;43.10;;;;;;;7.49;81.67;95076.98;106792;1274;22637;-81
2024/03/02 07:05:48;;;;;;;93.50;53.00;;;;;;;7.55;80.73;95083.86;106760;1275;25487;-78
2024/03/02 07:08:28;;;;;;;158.80;81.20;;;;;;;7.59;80.59;95083.83;106705;1274;24259;-81
2024/03/02 07:11:29;;;;;;;138.30;71.00;;;;;;;7.67;80.65;95088.25;106761;1266;24366;-81
2024/03/02 07:18:01;;;;;;;78.90;46.60;;;;;;;7.77;80.41;95087.40;106762;1275;22537;-80
2024/03/02 07:21:41;;;;;;;69.10;41.60;;;;;;;7.85;80.56;95087.09;106717;1274;25579;-79
2024/03/02 07:24:24;;;;;;;;;;;;;;;;;;;;;
2024/03/02 07:27:50;;;;;;;50.60;27.90;;;;;;;8.02;79.73;95084.19;107032;1274;22528;-78
2024/03/02 07:31:18;;;;;;;27.20;14.90;;;;;;;8.04;78.05;95082.04;107072;1274;24256;-81
2024/03/02 07:34:46;;;;;;;32.10;21.60;;;;;;;8.10;78.46;95096.66;107065;1274;22653;-78
2024/03/02 07:38:01;;;;;;;42.40;25.50;;;;;;;8.17;77.27;95096.54;107071;1274;22524;-81
2024/03/02 07:40:35;;;;;;;;;;;;;;;8.28;76.97;95090.73;107108;1274;23102;-82
2024/03/02 07:43:50;;;;;;;26.90;17.50;;;;;;;8.36;75.55;95097.77;107137;1274;23135;-79
2024/03/02 07:46:57;;;;;;;;;;;;;;;;;;;;;
2024/03/02 07:49:59;;;;;;;;;;;;;;;;;;;;;
2024/03/02 07:53:31;;;;;;;28.90;17.80;;;;;;;8.71;76.02;95097.87;106678;1274;24240;-81
2024/03/02 07:56:26;;;;;;;30.20;17.00;;;;;;;8.88;75.36;95094.75;106813;1274;25122;-81
2024/03/02 07:59:59;;;;;;;33.30;17.60;;;;;;;9.03;74.67;95091.26;106780;1275;24253;-80
2024/03/02 08:03:17;;;;;;;;;;;;;;;;;;;;;
2024/03/02 08:06:33;;;;;;;;;;;;;;;;;;;;;
2024/03/02 08:09:33;;;;;;;37.80;19.20;;;;;;;9.50;73.25;95090.60;106736;1275;22634;-76
2024/03/02 08:12:47;;;;;;;25.10;13.70;;;;;;;9.59;70.34;95095.34;106847;1271;24220;-80
2024/03/02 08:16:09;;;;;;;19.30;11.70;;;;;;;9.64;68.66;95094.51;106889;1274;22539;-78
2024/03/02 08:19:41;;;;;;;;;;;;;;;;;;;;;
2024/03/02 08:22:26;;;;;;;21.50;13.10;;;;;;;9.81;67.39;95092.88;106694;1275;22653;-81
2024/03/02 08:25:49;;;;;;;17.70;11.10;;;;;;;9.91;66.21;95092.84;106666;1274;22523;-80
2024/03/02 08:29:03;;;;;;;;;;;;;;;;;;;;;
2024/03/02 08:32:19;;;;;;;23.00;12.50;;;;;;;10.06;65.57;95089.84;106807;1274;25402;-74
2024/03/02 08:35:53;;;;;;;;;;;;;;;;;;;;;
2024/03/02 08:38:25;;;;;;;18.50;11.00;;;;;;;10.20;64.74;95084.20;110457;1275;22127;-72
2024/03/02 08:40:56;;;;;;;14.90;10.30;;;;;;;10.27;63.74;95085.08;110552;1275;22265;-72
2024/03/02 08:43:25;;;;;;;33.60;20.80;;;;;;;10.30;63.91;95086.95;110582;1274;22181;-72
2024/03/02 08:45:53;;;;;;;19.30;11.40;;;;;;;10.36;64.12;95090.13;110573;1274;22226;-72
2024/03/02 08:48:22;;;;;;;20.10;11.40;;;;;;;10.45;63.85;95092.02;110471;1275;22291;-72
2024/03/02 08:50:54;;;;;;;15.90;9.50;;;;;;;10.53;62.67;95090.59;110436;1274;22096;-72
2024/03/02 08:53:24;;;;;;;23.40;12.80;;;;;;;10.56;62.17;95093.67;110583;1274;22941;-72
2024/03/02 08:55:55;;;;;;;25.40;15.90;;;;;;;10.62;62.54;95096.17;110470;1275;22929;-72
2024/03/02 08:58:25;;;;;;;15.60;7.50;;;;;;;10.68;61.30;95092.63;110553;1274;22124;-72
2024/03/02 09:00:54;;;;;;;11.60;6.00;;;;;;;10.73;60.99;95094.62;110561;1274;22125;-72
2024/03/02 09:03:22;;;;;;;12.10;5.70;;;;;;;10.81;60.75;95094.59;110562;1274;22100;-73
2024/03/02 09:05:51;;;;;;;12.10;6.80;;;;;;;10.87;60.49;95089.83;110581;1275;22156;-72
2024/03/02 09:08:19;;;;;;;9.10;5.20;;;;;;;10.97;61.58;95094.66;110580;1274;22901;-72
2024/03/02 09:10:48;;;;;;;13.80;5.60;;;;;;;11.05;60.53;95095.65;110497;1275;22808;-72
2024/03/02 09:13:16;;;;;;;17.80;7.50;;;;;;;11.09;59.74;95096.27;110552;1274;22201;-72
2024/03/02 09:15:44;;;;;;;22.30;12.50;;;;;;;11.13;60.09;95095.98;110569;1274;22766;-72
2024/03/02 09:18:13;;;;;;;13.70;7.70;;;;;;;11.20;60.92;95094.73;110568;1274;22093;-73
2024/03/02 09:20:41;;;;;;;14.30;7.50;;;;;;;11.27;59.62;95096.47;110427;1275;22121;-72
2024/03/02 09:23:10;;;;;;;13.50;8.40;;;;;;;11.31;58.08;95096.31;110599;1274;22821;-72
2024/03/02 09:25:38;;;;;;;14.80;6.70;;;;;;;11.35;57.69;95100.27;110579;1274;22123;-72
2024/03/02 09:28:07;;;;;;;12.20;7.70;;;;;;;11.41;58.22;95099.04;110557;1274;22867;-72
2024/03/02 09:30:35;;;;;;;13.60;7.90;;;;;;;11.49;58.66;95100.20;110563;1274;22190;-72
2024/03/02 09:33:04;;;;;;;14.70;8.80;;;;;;;11.57;58.41;95103.65;110588;1274;22102;-72
2024/03/02 09:35:35;;;;;;;11.30;7.50;;;;;;;11.61;58.62;95100.52;110570;1274;22867;-72
2024/03/02 09:38:04;;;;;;;13.50;7.30;;;;;;;11.64;58.39;95099.91;110561;1274;22943;-72
2024/03/02 09:40:32;;;;;;;13.50;7.50;;;;;;;11.66;57.41;95102.52;110582;1274;22104;-72
2024/03/02 09:43:02;;;;;;;13.10;7.70;;;;;;;11.63;57.49;95103.30;110558;1274;22147;-73
2024/03/02 09:45:31;;;;;;;12.00;8.20;;;;;;;11.67;58.06;95104.58;110598;1274;22086;-73
2024/03/02 09:48:00;;;;;;;12.70;8.30;;;;;;;11.72;58.34;95105.33;110569;1274;22172;-72
2024/03/02 09:50:28;;;;;;;14.80;7.90;;;;;;;11.74;58.64;95104.57;110600;1274;22104;-72
2024/03/02 09:52:57;;;;;;;16.60;7.50;;;;;;;11.73;58.67;95105.11;110577;1274;22103;-72
2024/03/02 09:55:25;;;;;;;11.70;7.10;;;;;;;11.68;57.47;95108.06;110566;1271;22149;-72
2024/03/02 09:57:54;;;;;;;11.70;7.80;;;;;;;11.61;56.40;95105.48;110573;1274;22115;-72
2024/03/02 10:00:22;;;;;;;15.70;7.90;;;;;;;11.56;57.10;95106.33;110571;1274;22206;-73
2024/03/02 10:02:50;;;;;;;11.80;7.80;;;;;;;11.52;56.65;95103.46;110607;1275;22153;-72
2024/03/02 10:05:28;;;;;;;11.80;7.70;;;;;;;11.47;56.72;95105.35;110609;1274;22154;-72
2024/03/02 10:08:03;;;;;;;15.10;8.20;;;;;;;11.40;56.13;95108.91;110560;1275;22146;-72
2024/03/02 10:10:35;;;;;;;13.90;9.10;;;;;;;11.33;57.14;95107.17;110549;1274;22104;-73
2024/03/02 10:13:07;;;;;;;15.30;9.70;;;;;;;11.28;57.52;95111.38;110624;1274;22145;-72
2024/03/02 10:15:37;;;;;;;20.60;9.30;;;;;;;11.16;57.21;95109.09;110459;1275;22105;-72
2024/03/02 10:18:10;;;;;;;25.80;13.20;;;;;;;11.09;57.94;95107.54;110439;1275;22130;-73
2024/03/02 10:20:39;;;;;;;32.20;18.60;;;;;;;11.03;58.53;95108.73;110604;1274;22277;-73
2024/03/02 10:23:12;;;;;;;21.80;12.50;;;;;;;10.98;58.83;95109.77;110435;1274;23030;-72
2024/03/02 10:25:41;;;;;;;21.70;14.70;;;;;;;10.93;59.40;95109.58;110598;1274;22075;-72
2024/03/02 10:28:24;;;;;;;21.20;12.50;;;;;;;10.87;60.07;95104.09;110615;1274;22120;-72
2024/03/02 10:30:53;;;;;;;18.60;10.60;;;;;;;10.84;60.90;95101.91;110582;1274;22279;-72
2024/03/02 10:33:22;;;;;;;18.20;10.00;;;;;;;10.77;61.14;95104.19;110567;1274;22910;-72
2024/03/02 10:35:50;;;;;;;15.80;10.00;;;;;;;10.71;62.31;95106.46;110561;1274;22172;-72
2024/03/02 10:38:20;;;;;;;13.20;8.00;;;;;;;10.71;62.63;95109.81;110553;1274;22115;-73
2024/03/02 10:40:48;;;;;;;18.80;8.80;;;;;;;10.71;61.95;95103.30;110570;1274;22238;-72
2024/03/02 10:43:19;;;;;;;37.00;19.30;;;;;;;10.71;62.16;95105.77;110462;1275;22866;-72
2024/03/02 10:45:50;;;;;;;30.40;17.80;;;;;;;10.71;62.41;95108.92;110590;1275;22070;-72
2024/03/02 10:48:21;;;;;;;30.40;14.90;;;;;;;10.73;62.57;95109.58;110588;1274;22147;-73
2024/03/02 10:50:50;;;;;;;18.00;10.90;;;;;;;10.72;62.58;95107.31;110602;1274;22844;-72
2024/03/02 10:53:19;;;;;;;16.70;9.60;;;;;;;10.72;62.21;95102.92;110556;1274;22137;-72
2024/03/02 10:55:57;;;;;;;41.50;18.00;;;;;;;10.71;61.83;95100.83;110583;1274;22699;-73
2024/03/02 10:58:32;;;;;;;44.90;25.10;;;;;;;10.70;61.41;95099.27;110572;1274;22139;-72
2024/03/02 11:01:03;;;;;;;44.70;23.00;;;;;;;10.70;61.56;95101.03;110603;1274;22101;-72
2024/03/02 11:03:35;;;;;;;41.80;21.90;;;;;;;10.72;62.10;95099.58;110583;1275;22203;-72
2024/03/02 11:06:07;;;;;;;41.50;21.30;;;;;;;10.73;62.30;95094.09;110561;1275;22983;-72
2024/03/02 11:08:40;;;;;;;34.40;16.40;;;;;;;10.76;62.69;95096.48;110442;1274;22278;-72
2024/03/02 11:11:21;;;;;;;33.50;18.60;;;;;;;10.74;62.67;95091.96;110587;1274;22116;-72
2024/03/02 11:13:52;;;;;;;24.70;14.70;;;;;;;10.76;63.10;95092.61;110598;1274;22281;-72
2024/03/02 11:16:35;;;;;;;22.60;13.30;;;;;;;10.76;63.08;95089.77;110575;1275;22854;-72
2024/03/02 11:19:06;;;;;;;24.80;14.50;;;;;;;10.77;62.97;95090.30;110592;1274;22146;-72
2024/03/02 11:21:35;;;;;;;21.00;12.20;;;;;;;10.77;62.85;95091.34;110551;1275;23020;-72
2024/03/02 11:24:24;;;;;;;17.70;10.60;;;;;;;10.77;62.96;95092.23;110601;1274;22107;-73
2024/03/02 11:26:53;;;;;;;31.90;16.60;;;;;;;10.81;63.08;95093.72;110514;1275;22180;-72
2024/03/02 11:29:39;;;;;;;30.70;16.70;;;;;;;10.85;63.21;95089.02;110533;1274;22122;-73
2024/03/02 11:32:23;;;;;;;43.20;23.20;;;;;;;10.88;63.54;95089.63;110584;1274;22111;-72
2024/03/02 11:34:52;;;;;;;26.60;15.50;;;;;;;10.93;64.10;95087.22;110580;1274;22218;-72
2024/03/02 11:37:20;;;;;;;28.40;15.10;;;;;;;10.93;64.80;95087.20;110581;1275;22103;-72
2024/03/02 11:39:50;;;;;;;30.70;16.00;;;;;;;10.91;65.34;95080.23;110586;1274;22109;-72
2024/03/02 11:42:19;;;;;;;22.50;14.70;;;;;;;10.85;66.07;95080.57;110478;1274;22579;-72
2024/03/02 11:44:49;;;;;;;21.40;14.20;;;;;;;10.78;66.61;95083.20;110553;1274;22858;-72
2024/03/02 11:47:17;;;;;;;26.50;16.20;;;;;;;10.79;66.85;95081.95;110589;1274;22381;-72
2024/03/02 11:49:54;;;;;;;30.20;19.60;;;;;;;10.84;66.86;95077.25;110488;1271;22104;-72
2024/03/02 11:52:23;;;;;;;32.80;19.50;;;;;;;10.88;66.71;95073.27;110470;1275;22128;-72
2024/03/02 11:54:53;;;;;;;26.00;17.60;;;;;;;10.94;66.82;95075.03;110581;1274;22126;-72
2024/03/02 11:57:22;;;;;;;34.60;19.50;;;;;;;11.05;66.55;95071.39;110612;1275;22142;-72
2024/03/02 11:59:51;;;;;;;24.60;17.00;;;;;;;11.13;65.97;95073.62;110465;1275;22136;-72
2024/03/02 12:02:21;;;;;;;28.00;16.70;;;;;;;11.13;65.64;95071.34;110555;1274;23001;-72
2024/03/02 12:04:51;;;;;;;26.90;17.00;;;;;;;11.12;65.72;95070.67;110586;1275;22288;-72
2024/03/02 12:07:36;;;;;;;28.30;18.70;;;;;;;11.14;65.62;95067.08;103771;1313;544925;-78
2024/03/02 12:10:05;;;;;;;34.70;20.20;;;;;;;11.14;65.71;95066.91;105961;1288;25485;-74
2024/03/02 12:13:07;;;;;;;35.20;22.00;;;;;;;11.14;65.76;95064.61;105962;1277;22533;-78
2024/03/02 12:15:40;;;;;;;26.10;18.30;;;;;;;11.15;65.64;95065.83;105945;1289;25269;-82
2024/03/02 12:18:26;;;;;;;30.10;18.40;;;;;;;11.14;65.64;95063.57;106065;1288;22533;-81
2024/03/02 12:21:23;;;;;;;29.80;19.10;;;;;;;11.13;65.82;95069.41;105405;1286;670305;-77
2024/03/02 12:24:00;;;;;;;29.60;18.10;;;;;;;11.10;65.90;95070.53;106163;1284;22524;-81
2024/03/02 12:26:34;;;;;;;26.00;17.60;;;;;;;11.07;65.70;95067.46;106146;1284;22485;-80
2024/03/02 12:29:29;;;;;;;29.60;17.80;;;;;;;11.06;65.93;95069.08;106187;1284;25313;-79
2024/03/02 12:32:22;;;;;;;29.10;18.40;;;;;;;11.07;66.03;95070.10;106209;1284;22520;-78
2024/03/02 12:34:54;;;;;;;26.90;17.90;;;;;;;11.09;65.80;95073.55;106192;1284;25315;-79
2024/03/02 12:37:23;;;;;;;27.00;16.30;;;;;;;11.07;65.74;95072.40;105976;1284;24375;-83
2024/03/02 12:40:39;;;;;;;29.60;15.70;;;;;;;11.04;65.65;95077.38;106448;1279;25550;-82
2024/03/02 12:43:09;;;;;;;26.60;16.20;;;;;;;10.97;65.90;95078.48;106709;1275;24248;-78
2024/03/02 12:46:02;;;;;;;26.50;16.00;;;;;;;10.90;66.18;95082.37;106800;1275;23881;-79
2024/03/02 12:48:35;;;;;;;30.60;17.10;;;;;;;10.89;66.64;95083.45;106829;1275;25278;-79
2024/03/02 12:51:05;;;;;;;28.10;17.50;;;;;;;10.91;66.71;95083.40;106728;1275;26509;-81
2024/03/02 12:54:38;;;;;;;31.10;16.90;;;;;;;10.88;66.56;95078.91;106746;1275;24367;-80
2024/03/02 12:57:17;;;;;;;25.00;16.40;;;;;;;10.82;66.96;95081.71;107020;1275;25405;-74
2024/03/02 13:00:39;;;;;;;28.90;17.10;;;;;;;10.78;67.16;95080.41;106978;1273;24214;-74
2024/03/02 13:03:03;;;;;;;23.80;15.40;;;;;;;10.77;67.46;95082.02;106813;1275;24356;-76
2024/03/02 13:06:04;;;;;;;;;;;;;;;;;;;;;
2024/03/02 13:09:14;;;;;;;23.50;15.00;;;;;;;10.73;67.36;95086.52;106712;1275;25393;-82
2024/03/02 13:11:44;;;;;;;23.60;14.80;;;;;;;10.69;67.45;95092.29;106753;1275;22508;-81
2024/03/02 13:14:36;;;;;;;26.80;15.60;;;;;;;10.66;67.63;95094.30;106796;1275;22536;-82
2024/03/02 13:17:36;;;;;;;23.50;15.10;;;;;;;10.65;67.51;95088.35;106871;1275;25380;-81
2024/03/02 13:20:17;;;;;;;30.10;17.10;;;;;;;10.59;67.54;95088.30;106773;1275;24218;-79
2024/03/02 13:22:51;;;;;;;30.60;16.30;;;;;;;10.55;67.59;95090.71;106628;1275;25597;-82
2024/03/02 13:25:33;;;;;;;25.60;17.00;;;;;;;10.52;67.72;95094.48;107045;1263;25220;-79
2024/03/02 13:28:26;;;;;;;25.80;16.20;;;;;;;10.50;67.86;95095.77;107009;1275;25227;-78
2024/03/02 13:31:18;;;;;;;28.10;16.60;;;;;;;10.52;67.94;95099.23;106694;1275;24372;-79
2024/03/02 13:33:47;;;;;;;30.70;17.00;;;;;;;10.53;68.10;95097.09;106696;1275;22987;-74
2024/03/02 13:36:21;;;;;;;29.30;18.10;;;;;;;10.54;67.96;95094.45;106710;1275;22517;-82
2024/03/02 13:38:58;;;;;;;32.40;19.10;;;;;;;10.54;67.92;95098.46;106665;1275;25291;-81
2024/03/02 13:41:27;;;;;;;35.80;18.30;;;;;;;10.53;68.04;95099.20;106777;1275;25352;-78
2024/03/02 13:44:10;;;;;;;38.50;19.80;;;;;;;10.51;67.75;95099.23;106614;1275;22509;-76
2024/03/02 13:46:45;;;;;;;36.40;19.90;;;;;;;10.50;67.77;95099.10;106635;1275;22796;-75
2024/03/02 13:50:05;;;;;;;31.90;17.90;;;;;;;10.46;67.55;95105.90;106674;1275;22814;-80
2024/03/02 13:52:37;;;;;;;27.10;15.60;;;;;;;10.45;67.56;95109.63;106719;1275;22523;-82
2024/03/02 13:55:49;;;;;;;33.40;16.70;;;;;;;10.43;67.47;95111.06;106674;1275;25536;-76
2024/03/02 13:58:21;;;;;;;35.70;21.00;;;;;;;10.44;67.56;95115.45;106718;1275;25417;-75
2024/03/02 14:01:01;;;;;;;;;;;;;;;;;;;;;
2024/03/02 14:03:58;;;;;;;33.90;19.40;;;;;;;10.43;67.47;95115.30;106754;1275;22545;-79
2024/03/02 14:07:08;;;;;;;;;;;;;;;10.42;67.59;95119.89;106789;1275;24842;-74
2024/03/02 14:09:59;;;;;;;29.50;16.80;;;;;;;10.39;67.62;95117.67;106764;1275;22517;-81
2024/03/02 14:12:44;;;;;;;30.80;18.10;;;;;;;10.36;67.26;95113.70;106658;1275;24204;-79
2024/03/02 14:15:54;;;;;;;39.30;20.00;;;;;;;10.33;67.18;95119.07;106617;1275;23884;-80
2024/03/02 14:18:49;;;;;;;30.30;18.00;;;;;;;10.30;67.40;95122.80;106742;1275;25389;-82
2024/03/02 14:21:18;;;;;;;31.20;17.50;;;;;;;10.31;67.61;95121.91;106739;1275;22639;-78
2024/03/02 14:24:30;;;;;;;37.40;19.70;;;;;;;10.28;67.33;95114.09;106653;1275;22514;-79
2024/03/02 14:27:14;;;;;;;42.50;23.40;;;;;;;10.25;67.46;95109.76;106725;1275;22549;-82
2024/03/02 14:30:07;;;;;;;31.90;18.60;;;;;;;10.22;67.56;95115.25;106700;1275;24268;-79
2024/03/02 14:32:39;;;;;;;28.00;16.50;;;;;;;10.21;67.58;95117.04;106722;1275;23879;-76
2024/03/02 14:35:18;;;;;;;23.70;14.30;;;;;;;10.20;67.65;95114.61;106651;1275;22534;-81
2024/03/02 14:37:49;;;;;;;28.00;15.90;;;;;;;10.19;67.80;95118.66;106768;1275;25233;-81
2024/03/02 14:40:21;;;;;;;33.90;17.00;;;;;;;10.20;68.18;95111.27;106729;1275;25546;-77
2024/03/02 14:43:16;;;;;;;31.10;16.20;;;;;;;10.17;68.27;95110.61;106734;1275;24057;-82
2024/03/02 14:45:51;;;;;;;21.30;14.30;;;;;;;10.15;67.89;95105.41;106753;1275;22518;-82
2024/03/02 14:48:32;;;;;;;23.20;13.00;;;;;;;10.14;67.97;95106.15;106732;1275;22513;-82
2024/03/02 14:51:21;;;;;;;21.20;12.20;;;;;;;10.13;68.06;95106.68;106669;1275;22572;-76
2024/03/02 14:54:35;;;;;;;38.00;22.00;;;;;;;10.13;67.92;95101.07;106683;1275;25268;-78
2024/03/02 14:57:08;;;;;;;55.90;37.90;;;;;;;10.09;67.68;95099.06;106581;1275;24219;-80
2024/03/02 15:00:24;;;;;;;24.70;16.30;;;;;;;10.08;68.01;95103.83;106752;1275;22751;-82
2024/03/02 15:02:55;;;;;;;31.20;16.60;;;;;;;10.08;67.72;95105.77;106708;1275;22577;-79
2024/03/02 15:05:44;;;;;;;23.20;11.40;;;;;;;10.05;67.95;95106.38;106659;1275;22626;-82
2024/03/02 15:08:54;;;;;;;18.10;12.20;;;;;;;10.00;67.87;95101.05;106632;1275;22537;-75
2024/03/02 15:11:31;;;;;;;18.60;11.90;;;;;;;9.92;67.36;95100.87;106783;1275;25337;-79
2024/03/02 15:14:10;;;;;;;36.20;23.00;;;;;;;9.90;67.25;95104.60;106801;1275;25226;-78
2024/03/02 15:17:10;;;;;;;20.90;14.60;;;;;;;9.87;66.59;95104.84;106747;1275;22662;-74
2024/03/02 15:19:51;;;;;;;15.70;10.80;;;;;;;9.86;67.35;95112.26;106716;1256;22697;-76
2024/03/02 15:22:46;;;;;;;18.30;9.70;;;;;;;9.83;67.59;95114.62;106702;1275;22519;-79
2024/03/02 15:25:47;;;;;;;16.20;9.90;;;;;;;9.74;67.88;95119.90;106740;1275;24286;-82
2024/03/02 15:28:58;;;;;;;17.50;9.90;;;;;;;9.69;68.00;95117.39;106665;1275;24308;-83
2024/03/02 15:31:48;;;;;;;16.00;8.90;;;;;;;9.64;68.60;95117.70;106714;1275;25230;-75
2024/03/02 15:34:19;;;;;;;23.90;15.20;;;;;;;9.56;68.67;95117.34;106688;1275;24341;-77
2024/03/02 15:37:03;;;;;;;12.40;9.00;;;;;;;9.50;69.31;95124.49;106690;1275;23269;-82
2024/03/02 15:39:58;;;;;;;;;;;;;;;9.43;69.36;95120.09;106648;1275;23861;-82
2024/03/02 15:42:47;;;;;;;18.60;11.00;;;;;;;9.36;69.43;95120.23;106613;1275;25230;-78
2024/03/02 15:45:35;;;;;;;;;;;;;;;;;;;;;
2024/03/02 15:48:07;;;;;;;23.90;12.50;;;;;;;9.28;69.59;95119.70;106723;1275;22517;-82
2024/03/02 15:50:48;;;;;;;21.50;12.00;;;;;;;9.26;69.81;95121.33;106722;1264;22511;-82
2024/03/02 15:53:22;;;;;;;19.50;12.80;;;;;;;9.23;69.86;95123.67;106652;1275;25275;-78
2024/03/02 15:56:14;;;;;;;16.10;11.50;;;;;;;9.19;69.97;95119.91;106665;1275;22540;-80
2024/03/02 15:59:09;;;;;;;19.40;11.90;;;;;;;9.14;69.97;95124.20;106718;1275;22677;-80
2024/03/02 16:02:11;;;;;;;17.80;11.20;;;;;;;9.09;70.19;95124.46;106636;1275;22523;-81
2024/03/02 16:13:09;;;;;;;14.00;10.20;;;;;;;8.93;71.07;95133.05;103654;1313;544908;-82
2024/03/02 16:15:43;;;;;;;17.50;10.80;;;;;;;8.86;71.01;95132.67;105989;1289;22598;-75
2024/03/02 16:18:39;;;;;;;13.00;9.60;;;;;;;8.82;71.25;95133.80;105953;1289;24242;-79
2024/03/02 16:21:14;;;;;;;15.50;10.10;;;;;;;8.79;71.21;95142.43;106665;1280;22536;-77
2024/03/02 16:24:03;;;;;;;16.70;9.40;;;;;;;8.78;71.31;95141.23;106288;1280;26646;-79
2024/03/02 16:26:38;;;;;;;15.90;9.00;;;;;;;8.75;71.32;95146.89;102017;1278;5864317;-82
2024/03/02 16:29:33;;;;;;;13.70;8.70;;;;;;;8.73;71.41;95148.33;106608;1277;22530;-73
2024/03/02 16:32:25;;;;;;;11.00;8.10;;;;;;;8.70;71.44;95149.09;106753;1278;25382;-76
2024/03/02 16:35:34;;;;;;;12.90;8.30;;;;;;;8.67;71.52;95148.09;106719;1277;22561;-81
2024/03/02 16:38:06;;;;;;;13.10;9.50;;;;;;;8.62;71.11;95150.10;106740;1278;24260;-81
2024/03/02 16:40:40;;;;;;;20.70;10.90;;;;;;;8.60;71.01;95152.60;106301;1270;22526;-82
2024/03/02 16:43:41;;;;;;;21.10;12.80;;;;;;;8.57;71.29;95153.89;106425;1277;25548;-74
2024/03/02 16:46:37;;;;;;;;;;;;;;;;;;;;;
2024/03/02 16:49:11;;;;;;;20.20;12.30;;;;;;;8.52;71.18;95157.32;106769;1276;22526;-80
2024/03/02 16:52:00;;;;;;;10.60;7.50;;;;;;;8.47;71.33;95157.22;106713;1275;24222;-78
2024/03/02 16:54:32;;;;;;;14.20;7.90;;;;;;;8.41;71.29;95160.65;106654;1275;23136;-75
2024/03/02 16:57:52;;;;;;;;;;;;;;;;;;;;;
2024/03/02 17:00:21;;;;;;;8.70;5.90;;;;;;;8.34;71.04;95165.98;106650;1275;22786;-76
2024/03/02 17:03:19;;;;;;;14.50;8.40;;;;;;;8.29;71.09;95165.73;106543;1275;22520;-75
2024/03/02 17:05:54;;;;;;;14.70;8.50;;;;;;;8.22;71.24;95163.56;107003;1275;25510;-76
2024/03/02 17:08:32;;;;;;;51.50;24.30;;;;;;;8.18;71.36;95165.56;106618;1275;22530;-81
2024/03/02 17:11:27;;;;;;;33.80;17.80;;;;;;;8.16;71.38;95164.70;106666;1275;25587;-81
2024/03/02 17:13:59;;;;;;;12.30;7.50;;;;;;;8.14;71.47;95165.27;106659;1275;22526;-78
2024/03/02 17:17:00;;;;;;;14.10;7.60;;;;;;;8.13;71.28;95165.45;106663;1275;22529;-78
2024/03/02 17:20:01;;;;;;;30.60;12.40;;;;;;;8.10;71.25;95157.27;106784;1275;25271;-79
2024/03/02 17:22:39;;;;;;;39.70;16.60;;;;;;;8.06;70.93;95160.49;106766;1276;24021;-77
2024/03/02 17:25:21;;;;;;;11.80;7.00;;;;;;;8.04;70.87;95158.41;106624;1266;24212;-74
2024/03/02 17:28:41;;;;;;;24.90;11.70;;;;;;;8.01;70.61;95154.63;106621;1275;24389;-76
2024/03/02 17:31:43;;;;;;;;;;;;;;;;;;;;;
2024/03/02 17:34:12;;;;;;;30.90;14.10;;;;;;;8.13;69.11;95150.05;106683;1275;22525;-80
2024/03/02 17:36:46;;;;;;;27.60;12.00;;;;;;;8.21;67.96;95145.02;106588;1276;23885;-79
2024/03/02 17:39:20;;;;;;;37.60;14.80;;;;;;;8.36;66.76;95144.77;106663;1276;24212;-74
2024/03/02 17:42:01;;;;;;;15.30;7.80;;;;;;;8.45;67.31;95147.09;106577;1275;22799;-81
2024/03/02 17:44:35;;;;;;;8.50;6.10;;;;;;;8.43;66.86;95145.19;106629;1276;22533;-79
2024/03/02 17:47:13;;;;;;;7.90;4.20;;;;;;;8.39;67.38;95143.14;106688;1275;25349;-75
2024/03/02 17:49:42;;;;;;;11.90;6.70;;;;;;;8.36;67.53;95144.39;106648;1276;22666;-81
2024/03/02 17:52:24;;;;;;;13.60;8.80;;;;;;;8.38;67.38;95143.48;106674;1275;25346;-74
2024/03/02 17:55:43;;;;;;;;;;;;;;;;;;;;;
2024/03/02 17:58:32;;;;;;;13.30;7.50;;;;;;;8.41;67.12;95145.23;106824;1275;24297;-78
2024/03/02 18:01:24;;;;;;;12.40;6.80;;;;;;;8.41;67.12;95139.80;106807;1275;24223;-79
2024/03/02 18:03:58;;;;;;;13.30;6.80;;;;;;;8.38;66.68;95140.52;106583;1275;22529;-79
2024/03/02 18:06:26;;;;;;;;;;;;;;;8.36;66.84;95142.14;106698;1276;24000;-78
2024/03/02 18:09:16;;;;;;;14.90;6.80;;;;;;;8.34;66.57;95141.45;106692;1253;24223;-78
2024/03/02 18:12:14;;;;;;;12.80;6.20;;;;;;;8.37;66.68;95135.27;106641;1276;22533;-82
2024/03/02 18:15:13;;;;;;;6.70;4.80;;;;;;;8.41;66.62;95135.75;106627;1275;24248;-77
2024/03/02 18:18:06;;;;;;;7.80;5.40;;;;;;;8.44;66.73;95132.55;106745;1275;22523;-81
2024/03/02 18:21:17;;;;;;;;;;;;;;;8.47;66.74;95133.20;106645;1272;25312;-76
2024/03/02 18:23:49;;;;;;;8.90;5.50;;;;;;;8.44;66.63;95134.65;106622;1257;24328;-83